createdAt,value
2018-07-05T00:01:23.441Z,16.30
2018-07-05T00:04:03.024Z,16.30
2018-07-05T00:06:42.564Z,16.30
2018-07-05T00:09:22.157Z,16.30
2018-07-05T00:12:01.766Z,17.00
2018-07-05T00:14:41.343Z,17.00
2018-07-05T00:17:20.934Z,16.60
2018-07-05T00:20:00.541Z,16.10
2018-07-05T00:22:40.264Z,16.20
2018-07-05T00:25:19.777Z,16.30
2018-07-05T00:27:59.572Z,16.60
2018-07-05T00:30:39.166Z,16.90
2018-07-05T00:33:18.813Z,16.90
2018-07-05T00:35:58.392Z,17.00
2018-07-05T00:38:37.957Z,17.00
2018-07-05T00:43:50.905Z,16.50
2018-07-05T00:46:30.621Z,16.60
2018-07-05T00:49:10.187Z,17.10
2018-07-05T00:51:49.837Z,17.40
2018-07-05T00:57:02.953Z,17.50
2018-07-05T00:59:42.463Z,17.20
2018-07-05T01:02:22.092Z,16.30
2018-07-05T01:05:05.668Z,16.60
2018-07-05T01:07:45.285Z,17.20
2018-07-05T01:10:24.743Z,17.30
2018-07-05T01:13:04.296Z,17.10
2018-07-05T01:15:43.829Z,16.40
2018-07-05T01:18:23.460Z,15.90
2018-07-05T01:21:03.113Z,15.80
2018-07-05T01:23:42.772Z,16.30
2018-07-05T01:26:22.274Z,16.20
2018-07-05T01:29:01.928Z,16.60
2018-07-05T01:31:41.316Z,16.80
2018-07-05T01:34:20.742Z,17.00
2018-07-05T01:39:33.991Z,17.40
2018-07-05T01:42:13.741Z,17.30
2018-07-05T01:44:53.776Z,16.90
2018-07-05T01:47:33.403Z,16.70
2018-07-05T01:50:12.993Z,16.40
2018-07-05T01:52:52.468Z,16.50
2018-07-05T01:55:32.017Z,16.40
2018-07-05T01:58:11.591Z,16.30
2018-07-05T02:03:24.769Z,16.20
2018-07-05T02:06:04.321Z,16.50
2018-07-05T02:08:43.901Z,16.70
2018-07-05T02:11:23.428Z,16.80
2018-07-05T02:14:02.996Z,16.80
2018-07-05T02:16:42.423Z,16.80
2018-07-05T02:19:22.024Z,16.80
2018-07-05T02:22:01.568Z,16.80
2018-07-05T02:24:41.144Z,16.80
2018-07-05T02:27:20.707Z,16.90
2018-07-05T02:30:00.313Z,16.60
2018-07-05T02:32:40.044Z,16.70
2018-07-05T02:35:19.558Z,16.70
2018-07-05T02:38:04.648Z,16.70
2018-07-05T02:40:44.292Z,16.80
2018-07-05T02:43:24.056Z,16.90
2018-07-05T02:46:03.656Z,16.90
2018-07-05T02:48:43.138Z,16.60
2018-07-05T02:51:22.800Z,16.40
2018-07-05T02:56:36.110Z,16.60
2018-07-05T02:59:15.786Z,16.10
2018-07-05T03:01:55.445Z,16.20
2018-07-05T03:04:35.068Z,15.80
2018-07-05T03:07:14.512Z,16.00
2018-07-05T03:12:27.658Z,16.00
2018-07-05T03:15:07.389Z,16.30
2018-07-05T03:17:46.944Z,16.40
2018-07-05T03:20:26.652Z,16.60
2018-07-05T03:23:06.355Z,16.10
2018-07-05T03:25:45.935Z,16.20
2018-07-05T03:28:25.580Z,16.10
2018-07-05T03:31:05.090Z,15.60
2018-07-05T03:33:44.688Z,15.50
2018-07-05T03:36:24.089Z,15.40
2018-07-05T03:39:03.917Z,15.30
2018-07-05T03:41:43.702Z,15.20
2018-07-05T03:44:23.367Z,15.20
2018-07-05T03:47:02.975Z,15.10
2018-07-05T03:49:42.463Z,15.20
2018-07-05T03:52:22.175Z,15.10
2018-07-05T03:55:01.753Z,15.10
2018-07-05T04:00:15.080Z,15.00
2018-07-05T04:02:54.752Z,15.00
2018-07-05T04:05:34.413Z,15.00
2018-07-05T04:08:14.078Z,15.00
2018-07-05T04:10:53.534Z,15.50
2018-07-05T04:13:33.164Z,15.30
2018-07-05T04:16:12.688Z,15.30
2018-07-05T04:18:52.245Z,15.70
2018-07-05T04:21:31.806Z,15.80
2018-07-05T04:24:11.353Z,16.50
2018-07-05T04:26:50.888Z,16.50
2018-07-05T04:29:30.308Z,16.60
2018-07-05T04:32:09.951Z,16.70
2018-07-05T04:34:49.508Z,16.80
2018-07-05T04:37:29.059Z,16.90
2018-07-05T04:42:42.380Z,17.00
2018-07-05T04:45:22.053Z,17.00
2018-07-05T04:50:35.036Z,17.10
2018-07-05T04:53:14.636Z,17.10
2018-07-05T04:58:27.897Z,16.70
2018-07-05T05:01:07.541Z,17.00
2018-07-05T05:03:47.219Z,17.30
2018-07-05T05:06:26.776Z,17.40
2018-07-05T05:09:06.368Z,17.50
2018-07-05T05:11:45.888Z,17.50
2018-07-05T05:19:32.708Z,17.50
2018-07-05T05:22:12.260Z,17.40
2018-07-05T05:24:51.811Z,17.30
2018-07-05T05:30:05.211Z,17.30
2018-07-05T05:32:44.792Z,17.20
2018-07-05T05:35:24.556Z,17.30
2018-07-05T05:40:37.888Z,17.30
2018-07-05T05:43:17.460Z,17.40
2018-07-05T05:45:57.186Z,17.30
2018-07-05T05:51:11.180Z,17.10
2018-07-05T05:53:50.804Z,17.20
2018-07-05T05:59:04.129Z,17.40
2018-07-05T06:01:43.688Z,17.40
2018-07-05T06:04:23.105Z,17.40
2018-07-05T06:07:03.029Z,17.50
2018-07-05T06:09:42.621Z,17.40
2018-07-05T06:12:22.238Z,17.50
2018-07-05T06:15:01.805Z,17.50
2018-07-05T06:17:41.334Z,17.50
2018-07-05T06:22:54.593Z,17.50
2018-07-05T06:25:34.651Z,17.50
2018-07-05T06:30:47.836Z,17.40
2018-07-05T06:33:27.402Z,17.20
2018-07-05T06:36:07.057Z,17.30
2018-07-05T06:41:20.406Z,17.10
2018-07-05T06:46:33.455Z,16.80
2018-07-05T06:49:13.051Z,16.90
2018-07-05T06:51:52.693Z,16.90
2018-07-05T06:54:32.134Z,16.90
2018-07-05T06:57:11.788Z,17.00
2018-07-05T06:59:51.338Z,17.10
2018-07-05T07:02:30.859Z,17.20
2018-07-05T07:05:10.424Z,17.40
2018-07-05T07:07:49.992Z,17.40
2018-07-05T07:10:29.537Z,17.50
2018-07-05T07:13:09.953Z,17.60
2018-07-05T07:15:49.491Z,17.50
2018-07-05T07:18:29.031Z,17.40
2018-07-05T07:21:08.576Z,17.50
2018-07-05T07:23:48.155Z,17.60
2018-07-05T07:26:27.676Z,17.60
2018-07-05T07:31:41.074Z,17.00
2018-07-05T07:36:54.106Z,17.00
2018-07-05T07:39:33.570Z,17.10
2018-07-05T07:42:00.761Z,17.40
2018-07-05T07:51:50.370Z,18.10
2018-07-05T07:54:17.552Z,18.00
2018-07-05T07:56:44.802Z,18.00
2018-07-05T07:59:11.966Z,18.20
2018-07-05T08:01:39.182Z,18.20
2018-07-05T08:06:33.896Z,18.30
2018-07-05T08:09:01.080Z,18.40
2018-07-05T08:11:28.320Z,18.50
2018-07-05T08:13:55.553Z,18.60
2018-07-05T08:16:22.730Z,18.60
2018-07-05T08:18:49.987Z,18.70
2018-07-05T08:21:17.217Z,18.80
2018-07-05T08:23:44.502Z,18.90
2018-07-05T08:26:11.738Z,19.00
2018-07-05T08:28:38.978Z,19.00
2018-07-05T08:31:06.213Z,19.20
2018-07-05T08:33:33.465Z,19.30
2018-07-05T08:38:28.219Z,19.50
2018-07-05T08:40:55.446Z,19.60
2018-07-05T08:43:22.661Z,19.60
2018-07-05T08:45:49.838Z,19.70
2018-07-05T08:50:44.492Z,19.90
2018-07-05T08:53:11.720Z,20.10
2018-07-05T08:55:38.928Z,20.20
2018-07-05T08:58:06.116Z,20.30
2018-07-05T09:00:33.325Z,20.40
2018-07-05T09:03:00.532Z,20.50
2018-07-05T09:05:27.777Z,20.50
2018-07-05T09:07:55.001Z,20.50
2018-07-05T09:15:17.157Z,20.70
2018-07-05T09:17:44.363Z,20.70
2018-07-05T09:20:11.564Z,20.80
2018-07-05T09:25:06.206Z,20.70
2018-07-05T09:27:33.436Z,20.60
2018-07-05T09:32:28.136Z,20.50
2018-07-05T09:37:22.872Z,20.40
2018-07-05T09:39:50.024Z,20.40
2018-07-05T09:42:17.257Z,20.50
2018-07-05T09:47:11.966Z,20.60
2018-07-05T09:52:06.680Z,20.60
2018-07-05T09:54:33.954Z,20.50
2018-07-05T09:57:01.200Z,20.50
2018-07-05T09:59:28.413Z,20.40
2018-07-05T10:01:55.606Z,20.40
2018-07-05T10:04:22.809Z,20.30
2018-07-05T10:06:49.992Z,20.30
2018-07-05T10:09:17.170Z,20.20
2018-07-05T10:11:44.390Z,20.10
2018-07-05T10:14:11.557Z,20.00
2018-07-05T10:16:38.829Z,20.00
2018-07-05T10:19:06.130Z,19.80
2018-07-05T10:21:33.423Z,19.70
2018-07-05T10:24:00.685Z,19.50
2018-07-05T10:26:27.933Z,19.50
2018-07-05T10:29:07.683Z,19.50
2018-07-05T10:31:47.488Z,19.50
2018-07-05T10:36:42.242Z,19.20
2018-07-05T10:39:09.549Z,19.20
2018-07-05T10:41:49.197Z,19.10
2018-07-05T10:47:02.354Z,19.20
2018-07-05T10:49:41.963Z,19.00
2018-07-05T10:52:21.661Z,19.00
2018-07-05T10:55:01.249Z,19.00
2018-07-05T10:57:40.825Z,18.90
2018-07-05T11:00:20.719Z,18.80
2018-07-05T11:03:00.297Z,18.80
2018-07-05T11:08:13.467Z,18.90
2018-07-05T11:10:53.233Z,19.00
2018-07-05T11:13:33.025Z,18.90
2018-07-05T11:16:12.756Z,18.90
2018-07-05T11:18:52.400Z,18.90
2018-07-05T11:21:32.006Z,18.90
2018-07-05T11:24:11.604Z,18.80
2018-07-05T11:26:51.468Z,18.80
2018-07-05T11:29:31.202Z,18.80
2018-07-05T11:34:44.374Z,18.80
2018-07-05T11:37:23.909Z,18.80
2018-07-05T11:40:03.558Z,18.90
2018-07-05T11:42:43.188Z,18.90
2018-07-05T11:45:22.925Z,18.90
2018-07-05T11:50:36.111Z,18.90
2018-07-05T11:53:15.705Z,18.90
2018-07-05T11:58:29.126Z,19.00
2018-07-05T12:01:08.912Z,19.00
2018-07-05T12:03:48.468Z,19.10
2018-07-05T12:06:28.077Z,19.10
2018-07-05T12:09:08.661Z,19.10
2018-07-05T12:11:48.390Z,19.20
2018-07-05T12:17:01.716Z,19.20
2018-07-05T12:19:41.377Z,19.20
2018-07-05T12:27:28.361Z,19.30
2018-07-05T12:30:07.972Z,19.20
2018-07-05T12:32:47.546Z,19.30
2018-07-05T12:35:27.238Z,19.30
2018-07-05T12:38:06.938Z,19.30
2018-07-05T12:40:46.574Z,19.30
2018-07-05T12:43:26.326Z,19.40
2018-07-05T12:46:05.976Z,19.40
2018-07-05T12:48:45.633Z,19.20
2018-07-05T12:51:25.293Z,19.20
2018-07-05T12:54:04.891Z,18.90
2018-07-05T12:56:44.592Z,19.10
2018-07-05T12:59:24.458Z,19.20
2018-07-05T13:02:04.239Z,19.40
2018-07-05T13:04:43.980Z,19.50
2018-07-05T13:07:23.578Z,19.40
2018-07-05T13:10:03.417Z,19.40
2018-07-05T13:12:42.932Z,19.60
2018-07-05T13:15:22.431Z,19.60
2018-07-05T13:18:02.159Z,19.50
2018-07-05T13:20:41.856Z,19.60
2018-07-05T13:23:21.655Z,19.50
2018-07-05T13:26:01.297Z,19.70
2018-07-05T13:28:40.813Z,19.60
2018-07-05T13:31:20.799Z,19.70
2018-07-05T13:34:00.356Z,19.90
2018-07-05T13:36:39.969Z,19.80
2018-07-05T13:41:53.303Z,19.70
2018-07-05T13:44:32.834Z,20.00
2018-07-05T13:47:12.586Z,20.30
2018-07-05T13:49:52.105Z,20.50
2018-07-05T13:52:31.881Z,20.60
2018-07-05T13:55:11.408Z,20.60
2018-07-05T13:57:50.872Z,20.70
2018-07-05T14:00:30.817Z,20.80
2018-07-05T14:05:44.461Z,20.70
2018-07-05T14:08:24.111Z,20.90
2018-07-05T14:13:37.133Z,20.80
2018-07-05T14:16:16.799Z,20.90
2018-07-05T14:18:56.492Z,21.20
2018-07-05T14:21:36.373Z,21.30
2018-07-05T14:24:15.981Z,21.40
2018-07-05T14:26:55.715Z,21.20
2018-07-05T14:29:35.465Z,21.30
2018-07-05T14:32:15.245Z,21.10
2018-07-05T14:34:54.994Z,21.30
2018-07-05T14:37:34.797Z,21.10
2018-07-05T14:40:14.485Z,21.20
2018-07-05T14:42:54.046Z,21.10
2018-07-05T14:45:33.681Z,20.90
2018-07-05T14:48:13.350Z,21.10
2018-07-05T14:50:52.867Z,21.30
2018-07-05T14:56:06.277Z,21.10
2018-07-05T14:58:46.109Z,21.10
2018-07-05T15:03:59.208Z,21.20
2018-07-05T15:06:39.041Z,21.30
2018-07-05T15:09:18.719Z,21.40
2018-07-05T15:11:58.241Z,21.30
2018-07-05T15:14:38.202Z,21.40
2018-07-05T15:17:17.867Z,21.40
2018-07-05T15:19:57.470Z,21.50
2018-07-05T15:25:10.657Z,21.40
2018-07-05T15:27:50.485Z,21.40
2018-07-05T15:30:29.952Z,21.50
2018-07-05T15:33:09.477Z,21.50
2018-07-05T15:35:49.082Z,21.40
2018-07-05T15:43:35.970Z,21.50
2018-07-05T15:46:15.556Z,21.60
2018-07-05T15:48:55.203Z,21.70
2018-07-05T15:51:34.882Z,21.70
2018-07-05T15:54:14.461Z,21.80
2018-07-05T15:56:54.234Z,21.80
2018-07-05T15:59:34.081Z,21.70
2018-07-05T16:04:47.157Z,21.70
2018-07-05T16:07:26.859Z,21.70
2018-07-05T16:10:06.591Z,21.70
2018-07-05T16:15:19.736Z,21.70
2018-07-05T16:17:59.391Z,21.70
2018-07-05T16:20:38.988Z,21.80
2018-07-05T16:23:18.431Z,21.70
2018-07-05T16:25:58.032Z,21.70
2018-07-05T16:33:44.876Z,21.70
2018-07-05T16:36:24.557Z,21.50
2018-07-05T16:39:05.024Z,21.40
2018-07-05T16:41:44.736Z,21.50
2018-07-05T16:44:24.661Z,21.60
2018-07-05T16:47:04.370Z,21.50
2018-07-05T16:49:44.205Z,21.50
2018-07-05T16:52:23.873Z,21.50
2018-07-05T16:55:03.411Z,21.50
2018-07-05T16:57:43.144Z,21.50
2018-07-05T17:00:22.833Z,21.40
2018-07-05T17:03:02.650Z,21.40
2018-07-05T17:05:42.237Z,21.40
2018-07-05T17:10:55.725Z,21.50
2018-07-05T17:13:35.408Z,21.50
2018-07-05T17:16:14.939Z,21.50
2018-07-05T17:18:54.564Z,21.50
2018-07-05T17:21:34.384Z,21.50
2018-07-05T17:24:14.190Z,21.60
2018-07-05T17:26:53.870Z,21.60
2018-07-05T17:29:33.550Z,21.70
2018-07-05T17:32:13.183Z,21.80
2018-07-05T17:34:53.054Z,21.80
2018-07-05T17:37:32.885Z,21.90
2018-07-05T17:40:12.581Z,22.00
2018-07-05T17:42:52.253Z,22.00
2018-07-05T17:45:31.980Z,22.00
2018-07-05T17:48:11.501Z,22.00
2018-07-05T17:53:25.472Z,21.90
2018-07-05T17:56:05.229Z,21.90
2018-07-05T17:58:45.132Z,21.90
2018-07-05T18:01:24.617Z,21.90
2018-07-05T18:04:04.237Z,21.80
2018-07-05T18:06:43.777Z,21.80
2018-07-05T18:09:23.437Z,21.70
2018-07-05T18:12:03.103Z,21.60
2018-07-05T18:14:42.697Z,21.50
2018-07-05T18:17:22.343Z,21.40
2018-07-05T18:22:35.596Z,21.30
2018-07-05T18:27:49.036Z,21.30
2018-07-05T18:30:28.805Z,21.20
2018-07-05T18:33:08.477Z,21.20
2018-07-05T18:35:48.248Z,21.20
2018-07-05T18:38:27.935Z,21.10
2018-07-05T18:41:07.710Z,21.10
2018-07-05T18:43:47.465Z,21.10
2018-07-05T18:46:27.105Z,21.00
2018-07-05T18:49:06.880Z,20.90
2018-07-05T18:51:46.642Z,20.90
2018-07-05T18:56:59.764Z,20.80
2018-07-05T18:59:39.496Z,20.70
2018-07-05T19:02:19.249Z,20.70
2018-07-05T19:04:58.932Z,20.70
2018-07-05T19:07:38.625Z,20.60
2018-07-05T19:10:18.433Z,20.60
2018-07-05T19:12:57.912Z,20.50
2018-07-05T19:15:37.522Z,20.50
2018-07-05T19:18:17.175Z,20.40
2018-07-05T19:20:56.824Z,20.40
2018-07-05T19:23:36.488Z,20.40
2018-07-05T19:26:16.281Z,20.30
2018-07-05T19:28:55.909Z,20.30
2018-07-05T19:36:42.552Z,20.30
2018-07-05T19:39:22.220Z,20.30
2018-07-05T19:42:01.853Z,20.20
2018-07-05T19:44:41.517Z,20.20
2018-07-05T19:47:21.022Z,20.20
2018-07-05T19:50:00.637Z,20.20
2018-07-05T19:52:40.221Z,20.20
2018-07-05T19:55:19.730Z,20.10
2018-07-05T19:57:59.321Z,20.10
2018-07-05T20:00:39.271Z,20.00
2018-07-05T20:03:18.532Z,19.90
2018-07-05T20:05:58.150Z,19.60
2018-07-05T20:08:37.694Z,19.30
2018-07-05T20:11:17.309Z,19.00
2018-07-05T20:16:30.696Z,19.00
2018-07-05T20:19:10.690Z,19.00
2018-07-05T20:21:50.201Z,19.00
2018-07-05T20:24:29.754Z,19.10
2018-07-05T20:27:09.571Z,19.10
2018-07-05T20:29:49.049Z,18.90
2018-07-05T20:32:28.864Z,18.90
2018-07-05T20:35:08.533Z,18.90
2018-07-05T20:37:48.118Z,18.90
2018-07-05T20:40:27.796Z,19.00
2018-07-05T20:43:07.288Z,19.00
2018-07-05T20:45:46.840Z,18.90
2018-07-05T20:48:26.417Z,18.80
2018-07-05T20:51:06.081Z,18.70
2018-07-05T20:53:45.656Z,18.60
2018-07-05T20:56:25.320Z,18.80
2018-07-05T20:59:05.125Z,18.80
2018-07-05T21:01:44.823Z,18.60
2018-07-05T21:04:24.377Z,18.80
2018-07-05T21:07:03.916Z,18.70
2018-07-05T21:09:43.485Z,18.60
2018-07-05T21:12:23.180Z,18.50
2018-07-05T21:15:02.706Z,18.50
2018-07-05T21:17:42.402Z,18.60
2018-07-05T21:20:21.876Z,18.60
2018-07-05T21:25:35.202Z,18.70
2018-07-05T21:28:14.820Z,18.60
2018-07-05T21:30:54.453Z,18.60
2018-07-05T21:33:34.017Z,18.50
2018-07-05T21:36:13.649Z,18.50
2018-07-05T21:38:53.400Z,18.50
2018-07-05T21:41:33.039Z,18.50
2018-07-05T21:44:12.565Z,18.50
2018-07-05T21:46:52.197Z,18.40
2018-07-05T21:49:31.957Z,18.30
2018-07-05T21:52:11.685Z,18.40
2018-07-05T21:54:51.297Z,18.40
2018-07-05T21:57:30.889Z,18.40
2018-07-05T22:00:10.502Z,18.50
2018-07-05T22:02:50.261Z,18.50
2018-07-05T22:05:29.968Z,18.50
2018-07-05T22:08:09.561Z,18.50
2018-07-05T22:10:49.296Z,18.50
2018-07-05T22:13:28.860Z,18.50
2018-07-05T22:16:08.420Z,18.30
2018-07-05T22:18:53.717Z,18.20
2018-07-05T22:21:37.517Z,18.20
2018-07-05T22:24:22.587Z,18.10
2018-07-05T22:27:02.235Z,18.10
2018-07-05T22:29:47.552Z,18.20
2018-07-05T22:32:27.221Z,18.30
2018-07-05T22:35:07.000Z,18.40
2018-07-05T22:37:46.643Z,18.40
2018-07-05T22:40:26.289Z,18.50
2018-07-05T22:43:05.823Z,18.40
2018-07-05T22:45:45.399Z,18.20
2018-07-05T22:48:25.149Z,18.30
2018-07-05T22:51:04.608Z,18.30
2018-07-05T22:53:44.136Z,18.40
2018-07-05T22:56:23.737Z,18.40
2018-07-05T22:59:03.328Z,18.30
2018-07-05T23:01:42.905Z,18.30
2018-07-05T23:04:22.492Z,18.20
2018-07-05T23:07:01.981Z,18.10
2018-07-05T23:09:41.629Z,18.20
2018-07-05T23:12:21.241Z,18.10
2018-07-05T23:15:00.804Z,18.20
2018-07-05T23:17:40.352Z,18.20
2018-07-05T23:20:19.853Z,18.10
2018-07-05T23:22:59.626Z,18.00
2018-07-05T23:25:39.180Z,18.10
2018-07-05T23:28:18.893Z,18.10
2018-07-05T23:30:58.569Z,18.10
2018-07-05T23:33:38.297Z,18.00
2018-07-05T23:36:17.840Z,17.90
2018-07-05T23:38:57.381Z,17.70
2018-07-05T23:41:37.049Z,17.80
2018-07-05T23:44:16.668Z,17.80
2018-07-05T23:46:56.432Z,17.50
2018-07-05T23:49:36.154Z,17.60
2018-07-05T23:52:15.804Z,17.90
2018-07-05T23:54:55.444Z,17.90
2018-07-05T23:57:34.981Z,18.10
